Latest Weather Observations for Yarrawonga

IDV60801

Issued at 12:52 pm EST Wednesday 29 June 2022 (issued every 10 minutes, with the page automatically refreshed every 10 minutes)

About weather observations | Map of weather stations | Latest weather observations for VIC | Other Formats
Station Details ID: 081124 Name: YARRAWONGA Lat: -36.03 Lon: 146.03 Height: 128.9 m
Data from the previous 72 hours. | See also: Recent months at Yarrawonga
Date/Time
EST
Temp
°C
App
Temp
°C
Dew
Point
°C
Rel
Hum
%
Delta-T
°C
Wind Press
QNH
hPa
Press
MSL
hPa
Rain since
9am
mm
Dir  Spd
km/h
Gust
km/h
Spd
kts
Gust
kts
29/12:30pm 10.6 8.6 6.9 78 1.8 NNE 7 13 4 7 1025.1 1025.3 0.0
29/12:00pm 10.4 7.2 6.9 79 1.7 NNE 13 19 7 10 1025.6 1025.8 0.0
29/11:30am 9.6 6.5 7.2 85 1.1 NE 13 17 7 9 1026.0 1026.2 0.0
29/11:00am 9.2 6.8 8.7 97 0.2 NE 11 15 6 8 1026.6 1026.8 0.0
29/10:30am 7.5 4.2 6.6 94 0.4 NE 13 17 7 9 1026.8 1027.0 0.0
29/10:00am 7.3 4.1 7.0 98 0.1 ENE 13 20 7 11 1027.0 1027.2 0.0
29/09:30am 5.9 3.6 5.9 100 0.0 E 7 11 4 6 1027.1 1027.3 0.0
29/09:00am 3.6 0.1 3.6 100 0.0 E 11 15 6 8 1027.1 1027.3 0.0
29/08:30am 1.8 -2.0 1.8 100 0.0 E 11 13 6 7 1026.9 1027.1 0.0
29/08:00am 1.0 -2.2 1.0 100 0.0 E 7 7 4 4 1027.2 1027.4 0.0
29/07:30am 1.1 -1.5 1.1 100 0.0 E 4 6 2 3 1027.2 1027.4 0.0
29/07:00am 1.7 -0.8 1.7 100 0.0 ESE 4 6 2 3 1027.2 1027.4 0.0
29/06:30am 1.7 -0.8 1.7 100 0.0 ESE 4 6 2 3 1027.1 1027.3 0.0
29/06:00am 1.4 -1.1 1.4 100 0.0 E 4 6 2 3 1026.8 1027.0 0.0
29/05:30am 1.6 -0.9 1.6 100 0.0 E 4 7 2 4 1026.6 1026.8 0.0
29/05:00am 1.0 -2.2 1.0 100 0.0 E 7 9 4 5 1026.7 1026.9 0.0
29/04:30am 1.3 -1.8 1.3 100 0.0 ESE 7 7 4 4 1026.8 1027.0 0.0
29/04:00am 0.2 -2.9 0.2 100 0.0 ESE 6 7 3 4 1026.9 1027.1 0.0
29/03:30am 1.4 -0.7 1.4 100 0.0 ESE 2 4 1 2 1027.5 1027.7 0.0
29/03:00am 1.3 -1.6 1.3 100 0.0 E 6 7 3 4 1027.3 1027.5 0.0
29/02:30am 1.4 -1.5 1.4 100 0.0 E 6 9 3 5 1027.6 1027.8 0.0
29/02:00am 1.1 -1.9 1.1 100 0.0 ESE 6 9 3 5 1027.5 1027.7 0.0
29/01:30am 0.7 -1.6 0.7 100 0.0 SE 2 4 1 2 1027.9 1028.2 0.0
29/01:00am 1.4 -1.5 1.4 100 0.0 ESE 6 6 3 3 1028.0 1028.3 0.0
29/12:30am 1.6 -1.3 1.6 100 0.0 ESE 6 6 3 3 1028.3 1028.6 0.0
29/12:00am 1.6 -1.3 1.6 100 0.0 ESE 6 7 3 4 1028.3 1028.6 0.0
 
Date/Time
EST
Temp
°C
App
Temp
°C
Dew
Point
°C
Rel
Hum
%
Delta-T
°C
Wind Press
QNH
hPa
Press
MSL
hPa
Rain since
9am
mm
Dir  Spd
km/h
Gust
km/h
Spd
kts
Gust
kts
28/11:30pm 1.0 -2.0 1.0 100 0.0 ESE 6 6 3 3 1028.6 1028.9 0.0
28/11:00pm 1.5 -1.4 1.5 100 0.0 ESE 6 6 3 3 1028.6 1028.9 0.0
28/10:30pm 0.7 -1.2 0.7 100 0.0 CALM 0 0 0 0 1028.7 1029.0 0.0
28/10:00pm 1.2 -0.6 1.2 100 0.0 CALM 0 0 0 0 1029.0 1029.3 0.0
28/09:30pm 1.8 0.1 1.8 100 0.0 CALM 0 0 0 0 1029.0 1029.3 0.0
28/09:00pm 2.3 0.3 2.3 100 0.0 S 2 4 1 2 1029.2 1029.5 0.0
28/08:30pm 3.2 1.7 3.2 100 0.0 CALM 0 0 0 0 1029.3 1029.6 0.0
28/08:00pm 3.5 1.3 3.5 100 0.0 ENE 4 6 2 3 1029.2 1029.5 0.0
28/07:30pm 4.0 1.0 4.0 100 0.0 ENE 9 9 5 5 1029.0 1029.3 0.0
28/07:00pm 4.1 1.7 4.1 100 0.0 E 6 7 3 4 1029.1 1029.4 0.0
28/06:30pm 4.9 3.4 4.8 99 0.0 NE 2 4 1 2 1029.1 1029.4 0.0
28/06:00pm 6.5 5.7 6.4 99 0.0 CALM 0 2 0 1 1029.0 1029.3 0.0
28/05:30pm 7.0 5.0 6.3 95 0.3 NE 6 6 3 3 1028.8 1029.1 0.0
28/05:00pm 9.4 8.0 7.2 86 1.0 E 4 6 2 3 1028.9 1029.2 0.0
28/04:30pm 10.9 9.5 7.4 79 1.7 NE 4 4 2 2 1029.0 1029.3 0.0
28/04:00pm 11.6 10.2 7.3 75 2.1 NE 4 4 2 2 1029.3 1029.6 0.0
28/03:30pm 11.8 10.2 6.5 70 2.5 NNE 4 6 2 3 1029.8 1030.1 0.0
28/03:00pm 11.9 9.8 5.8 66 2.8 N 6 7 3 4 1030.1 1030.4 0.0
28/02:30pm 11.9 9.6 5.5 65 3.0 NNE 7 11 4 6 1030.3 1030.6 0.0
28/02:00pm 11.8 9.1 5.7 66 2.8 NNE 9 13 5 7 1030.8 1031.1 0.0
28/01:30pm 11.8 9.9 6.5 70 2.5 N 6 9 3 5 1031.4 1031.6 0.0
28/01:00pm 10.8 8.0 5.3 69 2.5 N 9 17 5 9 1031.8 1032.0 0.0
28/12:30pm 10.8 8.3 6.7 76 1.9 NNE 9 13 5 7 1032.0 1032.2 0.0
28/12:00pm 10.0 7.2 7.1 82 1.4 NE 11 17 6 9 1031.9 1032.1 0.0
28/11:30am 9.0 6.6 7.0 87 0.9 ENE 9 13 5 7 1032.5 1032.7 0.0
28/11:00am 8.2 6.1 6.5 89 0.8 ENE 7 9 4 5 1032.9 1033.1 0.0
28/10:30am 7.4 4.8 6.3 93 0.5 ENE 9 13 5 7 1033.1 1033.3 0.0
28/10:00am 6.9 4.5 6.8 99 0.0 E 9 13 5 7 1033.1 1033.3 0.0
28/09:30am 4.8 2.3 4.8 100 0.0 E 7 11 4 6 1033.2 1033.4 0.0
28/09:00am 3.2 0.4 3.2 100 0.0 ENE 7 9 4 5 1033.1 1033.3 0.0
28/08:30am 1.6 -1.8 1.6 100 0.0 ENE 9 11 5 6 1033.1 1033.3 0.0
28/08:00am 0.8 -1.4 0.8 100 0.0 ESE 2 4 1 2 1032.9 1033.1 0.0
28/07:30am -0.5 -3.7 -0.5 100 0.0 E 6 6 3 3 1032.6 1032.8 0.0
28/07:00am -0.6 -3.8 -0.6 100 0.0 ESE 6 7 3 4 1032.1 1032.3 0.0
28/06:30am -0.9 -3.8 -0.9 100 0.0 ESE 4 6 2 3 1032.0 1032.2 0.0
28/06:00am -0.8 -2.9 -0.8 100 0.0 CALM 0 2 0 1 1031.9 1032.1 0.0
28/05:30am -1.0 -3.1 -1.0 100 0.0 CALM 0 0 0 0 1031.9 1032.1 0.0
28/05:00am -0.4 -2.4 -0.4 100 0.0 CALM 0 0 0 0 1031.7 1031.9 0.0
28/04:30am -0.1 -2.1 -0.1 100 0.0 CALM 0 0 0 0 1031.7 1031.9 0.0
28/04:00am -0.4 -3.2 -0.4 100 0.0 E 4 6 2 3 1031.7 1031.9 0.0
28/03:30am 0.1 -1.9 0.1 100 0.0 CALM 0 0 0 0 1032.0 1032.2 0.0
28/03:00am -0.1 -2.5 -0.1 100 0.0 SSE 2 4 1 2 1032.1 1032.3 0.0
28/02:30am -0.4 -3.6 -0.4 100 0.0 S 6 7 3 4 1032.1 1032.3 0.0
28/02:00am 0.1 -1.9 0.1 100 0.0 CALM 0 0 0 0 1032.0 1032.2 0.0
28/01:30am 0.3 -2.0 0.3 100 0.0 ESE 2 4 1 2 1032.0 1032.2 0.0
28/01:00am 0.9 -1.7 0.9 100 0.0 ESE 4 6 2 3 1032.0 1032.2 0.0
28/12:30am 1.0 -1.6 1.0 100 0.0 SW 4 4 2 2 1032.0 1032.2 0.0
28/12:00am 2.0 -0.8 2.0 100 0.0 WSW 6 7 3 4 1032.5 1032.7 0.0
 
Date/Time
EST
Temp
°C
App
Temp
°C
Dew
Point
°C
Rel
Hum
%
Delta-T
°C
Wind Press
QNH
hPa
Press
MSL
hPa
Rain since
9am
mm
Dir  Spd
km/h
Gust
km/h
Spd
kts
Gust
kts
27/11:30pm 2.5 -0.2 2.5 100 0.0 WSW 6 6 3 3 1032.4 1032.6 0.0
27/11:00pm 2.3 -0.7 2.3 100 0.0 W 7 9 4 5 1032.7 1032.9 0.0
27/10:30pm 2.9 0.6 2.9 100 0.0 WSW 4 6 2 3 1032.5 1032.7 0.0
27/10:00pm 3.4 1.2 3.4 100 0.0 WSW 4 6 2 3 1032.3 1032.5 0.0
27/09:30pm 2.7 1.1 2.7 100 0.0 CALM 0 0 0 0 1032.6 1032.8 0.0
27/09:00pm 4.1 1.5 4.1 100 0.0 WSW 7 7 4 4 1032.7 1032.9 0.0
27/08:30pm 5.1 1.9 5.1 100 0.0 WSW 11 15 6 8 1032.7 1032.9 0.0
27/08:00pm 4.8 1.5 4.8 100 0.0 WSW 11 11 6 6 1032.4 1032.6 0.0
27/07:30pm 5.1 2.9 5.1 100 0.0 SW 6 9 3 5 1032.5 1032.7 0.0
27/07:00pm 5.1 2.3 5.0 99 0.0 WSW 9 11 5 6 1032.5 1032.7 0.0
27/06:30pm 5.5 2.8 5.4 99 0.0 WSW 9 9 5 5 1032.3 1032.5 0.0
27/06:00pm 6.2 3.6 6.1 99 0.0 WSW 9 11 5 6 1032.0 1032.2 0.0
27/05:30pm 6.8 4.2 6.1 95 0.3 SW 9 11 5 6 1032.0 1032.2 0.0
27/05:00pm 8.6 5.7 6.4 86 1.0 SW 11 15 6 8 1031.8 1032.0 0.0
27/04:30pm 10.2 6.5 6.4 77 1.8 SW 15 22 8 12 1031.7 1031.9 0.0
27/04:00pm 10.9 5.9 6.5 74 2.1 SW 22 30 12 16 1031.7 1031.9 0.0
27/03:30pm 11.3 6.2 5.8 69 2.6 SW 22 28 12 15 1031.6 1031.8 0.0
27/03:00pm 11.7 7.1 6.4 70 2.5 SW 20 24 11 13 1031.4 1031.6 0.0
27/02:30pm 12.2 7.5 5.1 62 3.3 SW 19 28 10 15 1031.6 1031.8 0.0
27/02:00pm 12.3 7.4 5.0 61 3.3 SW 20 28 11 15 1031.6 1031.8 0.0
27/01:30pm 12.3 7.2 4.3 58 3.6 SSW 20 28 11 15 1031.8 1032.0 0.0
27/01:00pm 12.2 7.7 4.4 59 3.5 SSW 17 33 9 18 1031.9 1032.1 0.0
27/12:30pm 11.7 6.8 5.3 65 3.0 SW 20 28 11 15 1032.0 1032.2 0.0
27/12:00pm 11.4 6.2 5.5 67 2.7 SW 22 28 12 15 1031.9 1032.1 0.0
27/11:30am 10.8 5.6 5.3 69 2.5 SSW 22 30 12 16 1032.2 1032.4 0.0
27/11:00am 10.3 6.3 6.6 78 1.7 SW 17 22 9 12 1032.3 1032.5 0.0
27/10:30am 9.7 5.8 7.3 85 1.1 SW 17 20 9 11 1032.3 1032.5 0.0
27/10:00am 9.0 5.9 7.3 89 0.8 SW 13 19 7 10 1032.3 1032.5 0.0
27/09:30am 7.4 4.3 7.3 99 0.0 SW 13 17 7 9 1032.1 1032.3 0.0
27/09:00am 6.1 2.4 6.1 100 0.0 SW 15 19 8 10 1031.7 1031.9 1.6
27/08:30am 4.9 0.5 4.9 100 0.0 SW 17 20 9 11 1031.4 1031.6 1.6
27/08:00am 3.3 -0.2 3.3 100 0.0 SW 11 15 6 8 1031.3 1031.5 1.6
27/07:30am 2.6 -1.1 2.6 100 0.0 WSW 11 13 6 7 1030.8 1031.1 1.6
27/07:00am 3.0 -1.0 3.0 100 0.0 WSW 13 15 7 8 1030.4 1030.7 1.6
27/06:30am 3.5 -0.4 3.5 100 0.0 SW 13 17 7 9 1030.1 1030.4 1.6
27/06:00am 4.1 -0.4 4.1 100 0.0 SW 17 20 9 11 1029.6 1029.9 1.6
27/05:30am 4.1 -0.4 4.1 100 0.0 WSW 17 20 9 11 1029.2 1029.5 1.6
27/05:00am 4.2 -0.3 4.2 100 0.0 WSW 17 20 9 11 1028.8 1029.1 1.6
27/04:30am 5.1 0.2 5.1 100 0.0 SW 20 26 11 14 1028.7 1029.0 1.6
27/04:00am 4.3 0.2 4.3 100 0.0 SW 15 17 8 9 1028.4 1028.7 1.6
27/03:30am 4.0 0.6 4.0 100 0.0 WSW 11 17 6 9 1028.2 1028.5 1.6
27/03:00am 4.6 -0.2 4.6 100 0.0 WSW 19 22 10 12 1028.2 1028.5 1.6
27/02:30am 4.7 0.7 4.7 100 0.0 WSW 15 17 8 9 1028.1 1028.4 1.6
27/02:00am 4.7 0.7 4.7 100 0.0 WSW 15 17 8 9 1028.0 1028.3 1.4
27/01:30am 5.2 1.6 5.2 100 0.0 SW 13 15 7 8 1028.0 1028.3 1.4
27/01:00am 5.5 1.6 5.5 100 0.0 WSW 15 20 8 11 1028.1 1028.4 1.4
27/12:30am 5.6 1.8 5.6 100 0.0 WSW 15 17 8 9 1028.0 1028.3 1.4
27/12:00am 6.1 2.4 6.1 100 0.0 WSW 15 20 8 11 1028.1 1028.4 1.4
 
Date/Time
EST
Temp
°C
App
Temp
°C
Dew
Point
°C
Rel
Hum
%
Delta-T
°C
Wind Press
QNH
hPa
Press
MSL
hPa
Rain since
9am
mm
Dir  Spd
km/h
Gust
km/h
Spd
kts
Gust
kts
26/11:30pm 6.4 3.1 6.4 100 0.0 WSW 13 17 7 9 1027.9 1028.2 1.4
26/11:00pm 7.0 3.5 7.0 100 0.0 WSW 15 19 8 10 1027.8 1028.1 1.4
26/10:30pm 7.3 4.2 7.3 100 0.0 WSW 13 19 7 10 1027.4 1027.6 1.4
26/10:00pm 7.9 4.9 7.9 100 0.0 WSW 13 15 7 8 1027.3 1027.5 1.4
26/09:30pm 8.0 5.1 8.0 100 0.0 WSW 13 15 7 8 1027.0 1027.2 1.4
26/09:00pm 8.3 5.1 8.3 100 0.0 WSW 15 17 8 9 1026.8 1027.0 1.4
26/08:30pm 8.1 5.6 8.1 100 0.0 WSW 11 15 6 8 1026.3 1026.5 1.4
26/08:00pm 8.8 6.1 8.8 100 0.0 WSW 13 17 7 9 1026.1 1026.3 1.4
26/07:30pm 9.6 5.4 9.6 100 0.0 WSW 22 28 12 15 1026.2 1026.4 1.2
26/07:12pm 10.2 4.6 10.2 100 0.0 WSW 30 43 16 23 1026.0 1026.2 0.6
26/07:00pm 11.3 9.1 10.8 97 0.3 W 13 17 7 9 1025.7 1025.9 0.2
26/06:30pm 8.3 7.2 8.3 100 0.0 WNW 4 7 2 4 1025.3 1025.5 0.2
26/06:00pm 8.6 7.5 8.6 100 0.0 WNW 4 6 2 3 1025.0 1025.2 0.2
26/05:30pm 9.2 8.3 9.1 99 0.0 W 4 4 2 2 1024.7 1024.9 0.2
26/05:00pm 11.7 10.9 9.8 88 1.0 WNW 4 6 2 3 1024.3 1024.5 0.2
26/04:30pm 13.2 12.1 9.8 80 1.8 WNW 6 9 3 5 1024.0 1024.2 0.2
26/04:00pm 12.7 11.1 10.1 84 1.3 W 9 17 5 9 1024.2 1024.4 0.2
26/03:30pm 13.7 12.8 10.7 82 1.6 WNW 6 11 3 6 1024.3 1024.5 0.2
26/03:00pm 12.8 13.3 11.5 92 0.7 CALM 0 0 0 0 1024.1 1024.3 0.2
26/02:30pm 12.6 12.1 10.8 89 0.9 W 4 6 2 3 1024.2 1024.4 0.0
26/02:00pm 13.3 12.8 10.8 85 1.3 W 4 7 2 4 1024.3 1024.5 0.0
26/01:30pm 13.2 11.9 11.1 87 1.1 WSW 9 15 5 8 1024.5 1024.7 0.0
26/01:00pm 13.0 12.0 10.9 87 1.1 W 7 13 4 7 1024.8 1025.0 0.0

Other formats

Comma delimited format used in spreadsheet applications
http://www.bom.gov.au/fwo/IDV60801/IDV60801.94862.axf

JavaScript Object Notation format (JSON) in row-major order
http://www.bom.gov.au/fwo/IDV60801/IDV60801.94862.json

Data quality

Most of these data are generated automatically and are frequently updated. Quality checks on data are not normally performed. It is possible for incorrect values to appear. Refer to information at About Latest Weather Observations and please check the disclaimer before using these data.